sensor_id;sensor_type;location;lat;lon;timestamp;temperature;humidity
7331;DHT22;3706;49.198;7.064;2022-09-28T00:01:32;9.00;99.90
7331;DHT22;3706;49.198;7.064;2022-09-28T00:04:00;9.00;99.90
7331;DHT22;3706;49.198;7.064;2022-09-28T00:06:29;8.90;99.90
7331;DHT22;3706;49.198;7.064;2022-09-28T00:08:56;8.90;99.90
7331;DHT22;3706;49.198;7.064;2022-09-28T00:11:24;8.90;99.90
7331;DHT22;3706;49.198;7.064;2022-09-28T00:13:55;8.90;99.90
7331;DHT22;3706;49.198;7.064;2022-09-28T00:16:24;8.90;99.90
7331;DHT22;3706;49.198;7.064;2022-09-28T00:18:52;8.90;99.90
7331;DHT22;3706;49.198;7.064;2022-09-28T00:21:23;9.00;99.90
7331;DHT22;3706;49.198;7.064;2022-09-28T00:23:52;9.00;99.90
7331;DHT22;3706;49.198;7.064;2022-09-28T00:26:38;9.10;99.90
7331;DHT22;3706;49.198;7.064;2022-09-28T00:29:06;9.10;99.90
7331;DHT22;3706;49.198;7.064;2022-09-28T00:31:34;9.10;99.90
7331;DHT22;3706;49.198;7.064;2022-09-28T00:34:01;9.00;99.90
7331;DHT22;3706;49.198;7.064;2022-09-28T00:36:32;9.00;99.90
7331;DHT22;3706;49.198;7.064;2022-09-28T00:39:03;8.90;99.90
7331;DHT22;3706;49.198;7.064;2022-09-28T00:41:30;8.90;99.90
7331;DHT22;3706;49.198;7.064;2022-09-28T00:44:33;8.80;99.90
7331;DHT22;3706;49.198;7.064;2022-09-28T00:47:06;8.90;99.90
7331;DHT22;3706;49.198;7.064;2022-09-28T00:49:37;8.90;99.90
7331;DHT22;3706;49.198;7.064;2022-09-28T00:52:10;8.90;99.90
7331;DHT22;3706;49.198;7.064;2022-09-28T00:54:39;8.90;99.90
7331;DHT22;3706;49.198;7.064;2022-09-28T00:57:08;8.90;99.90
7331;DHT22;3706;49.198;7.064;2022-09-28T00:59:35;8.90;99.90
7331;DHT22;3706;49.198;7.064;2022-09-28T01:02:02;8.90;99.90
7331;DHT22;3706;49.198;7.064;2022-09-28T01:04:30;8.90;99.90
7331;DHT22;3706;49.198;7.064;2022-09-28T01:06:58;8.90;99.90
7331;DHT22;3706;49.198;7.064;2022-09-28T01:09:28;8.90;99.90
7331;DHT22;3706;49.198;7.064;2022-09-28T01:11:55;8.90;99.90
7331;DHT22;3706;49.198;7.064;2022-09-28T01:14:23;8.80;99.90
7331;DHT22;3706;49.198;7.064;2022-09-28T01:17:01;8.90;99.90
7331;DHT22;3706;49.198;7.064;2022-09-28T01:19:42;8.90;99.90
7331;DHT22;3706;49.198;7.064;2022-09-28T01:22:25;8.90;99.90
7331;DHT22;3706;49.198;7.064;2022-09-28T01:24:58;9.00;99.90
7331;DHT22;3706;49.198;7.064;2022-09-28T01:27:29;9.00;99.90
7331;DHT22;3706;49.198;7.064;2022-09-28T01:30:02;9.00;99.90
7331;DHT22;3706;49.198;7.064;2022-09-28T01:32:37;8.90;99.90
7331;DHT22;3706;49.198;7.064;2022-09-28T01:35:10;9.00;99.90
7331;DHT22;3706;49.198;7.064;2022-09-28T01:37:45;9.00;99.90
7331;DHT22;3706;49.198;7.064;2022-09-28T01:40:13;9.00;99.90
7331;DHT22;3706;49.198;7.064;2022-09-28T01:42:43;9.10;99.90
7331;DHT22;3706;49.198;7.064;2022-09-28T01:45:17;9.10;99.90
7331;DHT22;3706;49.198;7.064;2022-09-28T01:47:45;9.10;99.90
7331;DHT22;3706;49.198;7.064;2022-09-28T01:50:15;9.10;99.90
7331;DHT22;3706;49.198;7.064;2022-09-28T01:52:47;9.10;99.90
7331;DHT22;3706;49.198;7.064;2022-09-28T01:55:21;9.20;99.90
7331;DHT22;3706;49.198;7.064;2022-09-28T01:57:54;9.30;99.90
7331;DHT22;3706;49.198;7.064;2022-09-28T02:00:23;9.30;99.90
7331;DHT22;3706;49.198;7.064;2022-09-28T02:02:56;9.40;99.90
7331;DHT22;3706;49.198;7.064;2022-09-28T02:05:28;9.30;99.90
7331;DHT22;3706;49.198;7.064;2022-09-28T02:08:01;9.30;99.90
7331;DHT22;3706;49.198;7.064;2022-09-28T02:10:32;9.40;99.90
7331;DHT22;3706;49.198;7.064;2022-09-28T02:13:04;9.40;99.90
7331;DHT22;3706;49.198;7.064;2022-09-28T02:15:35;9.30;99.90
7331;DHT22;3706;49.198;7.064;2022-09-28T02:18:06;9.30;99.90
7331;DHT22;3706;49.198;7.064;2022-09-28T02:20:35;9.20;99.90
7331;DHT22;3706;49.198;7.064;2022-09-28T02:23:04;9.20;99.90
7331;DHT22;3706;49.198;7.064;2022-09-28T02:25:37;9.20;99.90
7331;DHT22;3706;49.198;7.064;2022-09-28T02:28:09;9.20;99.90
7331;DHT22;3706;49.198;7.064;2022-09-28T02:30:40;9.20;99.90
7331;DHT22;3706;49.198;7.064;2022-09-28T02:33:11;9.10;99.90
7331;DHT22;3706;49.198;7.064;2022-09-28T02:35:40;9.10;99.90
7331;DHT22;3706;49.198;7.064;2022-09-28T02:38:08;9.10;99.90
7331;DHT22;3706;49.198;7.064;2022-09-28T02:40:36;9.10;99.90
7331;DHT22;3706;49.198;7.064;2022-09-28T02:43:12;9.10;99.90
7331;DHT22;3706;49.198;7.064;2022-09-28T02:45:49;9.10;99.90
7331;DHT22;3706;49.198;7.064;2022-09-28T02:48:33;9.20;99.90
7331;DHT22;3706;49.198;7.064;2022-09-28T02:51:08;9.20;99.90
7331;DHT22;3706;49.198;7.064;2022-09-28T02:53:52;9.20;99.90
7331;DHT22;3706;49.198;7.064;2022-09-28T02:56:40;9.20;99.90
7331;DHT22;3706;49.198;7.064;2022-09-28T02:59:22;9.20;99.90
7331;DHT22;3706;49.198;7.064;2022-09-28T03:02:02;9.30;99.90
7331;DHT22;3706;49.198;7.064;2022-09-28T03:04:39;9.20;99.90
7331;DHT22;3706;49.198;7.064;2022-09-28T03:07:17;9.20;99.90
7331;DHT22;3706;49.198;7.064;2022-09-28T03:09:54;9.30;99.90
7331;DHT22;3706;49.198;7.064;2022-09-28T03:12:23;9.30;99.90
7331;DHT22;3706;49.198;7.064;2022-09-28T03:15:07;9.40;99.90
7331;DHT22;3706;49.198;7.064;2022-09-28T03:17:35;9.50;99.90
7331;DHT22;3706;49.198;7.064;2022-09-28T03:20:02;9.40;99.90
7331;DHT22;3706;49.198;7.064;2022-09-28T03:22:30;9.40;99.90
7331;DHT22;3706;49.198;7.064;2022-09-28T03:24:57;9.40;99.90
7331;DHT22;3706;49.198;7.064;2022-09-28T03:27:23;9.30;99.90
7331;DHT22;3706;49.198;7.064;2022-09-28T03:29:50;9.30;99.90
7331;DHT22;3706;49.198;7.064;2022-09-28T03:32:18;9.30;99.90
7331;DHT22;3706;49.198;7.064;2022-09-28T03:34:45;9.30;99.90
7331;DHT22;3706;49.198;7.064;2022-09-28T03:37:12;9.30;99.90
7331;DHT22;3706;49.198;7.064;2022-09-28T03:39:39;9.40;99.90
7331;DHT22;3706;49.198;7.064;2022-09-28T03:42:06;9.50;99.90
7331;DHT22;3706;49.198;7.064;2022-09-28T03:44:33;9.50;99.90
7331;DHT22;3706;49.198;7.064;2022-09-28T03:47:00;9.50;99.90
7331;DHT22;3706;49.198;7.064;2022-09-28T03:49:28;9.50;99.90
7331;DHT22;3706;49.198;7.064;2022-09-28T03:51:55;9.50;99.90
7331;DHT22;3706;49.198;7.064;2022-09-28T03:54:22;9.50;99.90
7331;DHT22;3706;49.198;7.064;2022-09-28T03:56:49;9.50;99.90
7331;DHT22;3706;49.198;7.064;2022-09-28T03:59:16;9.40;99.90
7331;DHT22;3706;49.198;7.064;2022-09-28T04:01:43;9.40;99.90
7331;DHT22;3706;49.198;7.064;2022-09-28T04:04:11;9.30;99.90
7331;DHT22;3706;49.198;7.064;2022-09-28T04:06:39;9.30;99.90
7331;DHT22;3706;49.198;7.064;2022-09-28T04:09:06;9.30;99.90
7331;DHT22;3706;49.198;7.064;2022-09-28T04:11:34;9.30;99.90
7331;DHT22;3706;49.198;7.064;2022-09-28T04:14:01;9.30;99.90
7331;DHT22;3706;49.198;7.064;2022-09-28T04:16:28;9.30;99.90
7331;DHT22;3706;49.198;7.064;2022-09-28T04:18:56;9.20;99.90
7331;DHT22;3706;49.198;7.064;2022-09-28T04:21:23;9.30;99.90
7331;DHT22;3706;49.198;7.064;2022-09-28T04:23:51;9.30;99.90
7331;DHT22;3706;49.198;7.064;2022-09-28T04:26:22;9.30;99.90
7331;DHT22;3706;49.198;7.064;2022-09-28T04:28:50;9.30;99.90
7331;DHT22;3706;49.198;7.064;2022-09-28T04:31:38;9.30;99.90
7331;DHT22;3706;49.198;7.064;2022-09-28T04:34:05;9.30;99.90
7331;DHT22;3706;49.198;7.064;2022-09-28T04:36:32;9.30;99.90
7331;DHT22;3706;49.198;7.064;2022-09-28T04:39:00;9.30;99.90
7331;DHT22;3706;49.198;7.064;2022-09-28T04:41:27;9.20;99.90
7331;DHT22;3706;49.198;7.064;2022-09-28T04:43:54;9.20;99.90
7331;DHT22;3706;49.198;7.064;2022-09-28T04:46:21;9.20;99.90
7331;DHT22;3706;49.198;7.064;2022-09-28T04:48:48;9.10;99.90
7331;DHT22;3706;49.198;7.064;2022-09-28T04:51:15;9.10;99.90
7331;DHT22;3706;49.198;7.064;2022-09-28T04:53:42;9.10;99.90
7331;DHT22;3706;49.198;7.064;2022-09-28T04:56:12;9.10;99.90
7331;DHT22;3706;49.198;7.064;2022-09-28T04:58:39;9.10;99.90
7331;DHT22;3706;49.198;7.064;2022-09-28T05:01:09;9.10;99.90
7331;DHT22;3706;49.198;7.064;2022-09-28T05:03:36;9.20;99.90
7331;DHT22;3706;49.198;7.064;2022-09-28T05:06:04;9.20;99.90
7331;DHT22;3706;49.198;7.064;2022-09-28T05:08:32;9.20;99.90
7331;DHT22;3706;49.198;7.064;2022-09-28T05:11:01;9.20;99.90
7331;DHT22;3706;49.198;7.064;2022-09-28T05:13:37;9.20;99.90
7331;DHT22;3706;49.198;7.064;2022-09-28T05:16:06;9.30;99.90
7331;DHT22;3706;49.198;7.064;2022-09-28T05:18:34;9.30;99.90
7331;DHT22;3706;49.198;7.064;2022-09-28T05:21:02;9.30;99.90
7331;DHT22;3706;49.198;7.064;2022-09-28T05:23:29;9.30;99.90
7331;DHT22;3706;49.198;7.064;2022-09-28T05:25:56;9.20;99.90
7331;DHT22;3706;49.198;7.064;2022-09-28T05:28:27;9.10;99.90
7331;DHT22;3706;49.198;7.064;2022-09-28T05:30:58;9.10;99.90
7331;DHT22;3706;49.198;7.064;2022-09-28T05:33:26;9.00;99.90
7331;DHT22;3706;49.198;7.064;2022-09-28T05:35:53;8.90;99.90
7331;DHT22;3706;49.198;7.064;2022-09-28T05:38:20;8.80;99.90
7331;DHT22;3706;49.198;7.064;2022-09-28T05:40:47;8.60;99.90
7331;DHT22;3706;49.198;7.064;2022-09-28T05:43:14;8.50;99.90
7331;DHT22;3706;49.198;7.064;2022-09-28T05:45:41;8.40;99.90
7331;DHT22;3706;49.198;7.064;2022-09-28T05:48:09;8.40;99.90
7331;DHT22;3706;49.198;7.064;2022-09-28T05:50:36;8.40;99.90
7331;DHT22;3706;49.198;7.064;2022-09-28T05:53:05;8.40;99.90
7331;DHT22;3706;49.198;7.064;2022-09-28T05:55:32;8.30;99.90
7331;DHT22;3706;49.198;7.064;2022-09-28T05:58:00;8.40;99.90
7331;DHT22;3706;49.198;7.064;2022-09-28T06:00:28;8.50;99.90
7331;DHT22;3706;49.198;7.064;2022-09-28T06:02:57;8.50;99.90
7331;DHT22;3706;49.198;7.064;2022-09-28T06:05:28;8.50;99.90
7331;DHT22;3706;49.198;7.064;2022-09-28T06:07:56;8.50;99.90
7331;DHT22;3706;49.198;7.064;2022-09-28T06:10:24;8.60;99.90
7331;DHT22;3706;49.198;7.064;2022-09-28T06:12:51;8.60;99.90
7331;DHT22;3706;49.198;7.064;2022-09-28T06:15:19;8.60;99.90
7331;DHT22;3706;49.198;7.064;2022-09-28T06:17:46;8.60;99.90
7331;DHT22;3706;49.198;7.064;2022-09-28T06:20:13;8.60;99.90
7331;DHT22;3706;49.198;7.064;2022-09-28T06:22:41;8.60;99.90
7331;DHT22;3706;49.198;7.064;2022-09-28T06:25:08;8.70;99.90
7331;DHT22;3706;49.198;7.064;2022-09-28T06:27:35;8.80;99.90
7331;DHT22;3706;49.198;7.064;2022-09-28T06:30:04;8.90;99.90
7331;DHT22;3706;49.198;7.064;2022-09-28T06:32:31;9.00;99.90
7331;DHT22;3706;49.198;7.064;2022-09-28T06:34:58;9.10;99.90
7331;DHT22;3706;49.198;7.064;2022-09-28T06:37:25;9.10;99.90
7331;DHT22;3706;49.198;7.064;2022-09-28T06:39:54;9.20;99.90
7331;DHT22;3706;49.198;7.064;2022-09-28T06:42:21;9.30;99.90
7331;DHT22;3706;49.198;7.064;2022-09-28T06:44:48;9.40;99.90
7331;DHT22;3706;49.198;7.064;2022-09-28T06:47:15;9.50;99.90
7331;DHT22;3706;49.198;7.064;2022-09-28T06:49:42;9.60;99.90
7331;DHT22;3706;49.198;7.064;2022-09-28T06:52:12;9.60;99.90
7331;DHT22;3706;49.198;7.064;2022-09-28T06:54:39;9.70;99.90
7331;DHT22;3706;49.198;7.064;2022-09-28T06:57:07;10.00;99.90
7331;DHT22;3706;49.198;7.064;2022-09-28T06:59:34;10.10;99.90
7331;DHT22;3706;49.198;7.064;2022-09-28T07:02:01;10.30;99.90
7331;DHT22;3706;49.198;7.064;2022-09-28T07:04:28;10.40;99.90
7331;DHT22;3706;49.198;7.064;2022-09-28T07:06:55;10.30;99.90
7331;DHT22;3706;49.198;7.064;2022-09-28T07:09:23;10.30;99.90
7331;DHT22;3706;49.198;7.064;2022-09-28T07:11:50;10.30;99.90
7331;DHT22;3706;49.198;7.064;2022-09-28T07:14:19;10.30;99.90
7331;DHT22;3706;49.198;7.064;2022-09-28T07:16:46;10.30;99.90
7331;DHT22;3706;49.198;7.064;2022-09-28T07:19:13;10.20;99.90
7331;DHT22;3706;49.198;7.064;2022-09-28T07:21:41;10.20;99.90
7331;DHT22;3706;49.198;7.064;2022-09-28T07:24:07;10.20;99.90
7331;DHT22;3706;49.198;7.064;2022-09-28T07:26:38;10.20;99.90
7331;DHT22;3706;49.198;7.064;2022-09-28T07:29:05;10.30;99.90
7331;DHT22;3706;49.198;7.064;2022-09-28T07:31:34;10.40;99.90
7331;DHT22;3706;49.198;7.064;2022-09-28T07:34:01;10.40;99.90
7331;DHT22;3706;49.198;7.064;2022-09-28T07:36:28;10.40;99.90
7331;DHT22;3706;49.198;7.064;2022-09-28T07:38:59;10.60;99.90
7331;DHT22;3706;49.198;7.064;2022-09-28T07:41:27;11.20;99.90
7331;DHT22;3706;49.198;7.064;2022-09-28T07:43:57;12.10;99.90
7331;DHT22;3706;49.198;7.064;2022-09-28T07:46:30;13.30;99.90
7331;DHT22;3706;49.198;7.064;2022-09-28T07:48:59;14.90;99.90
7331;DHT22;3706;49.198;7.064;2022-09-28T07:51:26;16.10;99.90
7331;DHT22;3706;49.198;7.064;2022-09-28T07:53:53;16.70;99.90
7331;DHT22;3706;49.198;7.064;2022-09-28T07:56:20;16.90;99.90
7331;DHT22;3706;49.198;7.064;2022-09-28T07:58:48;16.80;99.90
7331;DHT22;3706;49.198;7.064;2022-09-28T08:01:15;16.40;99.90
7331;DHT22;3706;49.198;7.064;2022-09-28T08:03:43;16.00;99.90
7331;DHT22;3706;49.198;7.064;2022-09-28T08:06:14;15.50;99.90
7331;DHT22;3706;49.198;7.064;2022-09-28T08:08:42;15.40;99.90
7331;DHT22;3706;49.198;7.064;2022-09-28T08:11:10;15.40;99.90
7331;DHT22;3706;49.198;7.064;2022-09-28T08:13:37;15.70;99.90
7331;DHT22;3706;49.198;7.064;2022-09-28T08:16:04;16.50;99.90
7331;DHT22;3706;49.198;7.064;2022-09-28T08:18:33;17.50;99.90
7331;DHT22;3706;49.198;7.064;2022-09-28T08:21:01;18.30;99.90
7331;DHT22;3706;49.198;7.064;2022-09-28T08:23:47;18.30;99.90
7331;DHT22;3706;49.198;7.064;2022-09-28T08:26:14;18.30;99.90
7331;DHT22;3706;49.198;7.064;2022-09-28T08:28:41;18.10;99.90
7331;DHT22;3706;49.198;7.064;2022-09-28T08:31:09;18.10;99.90
7331;DHT22;3706;49.198;7.064;2022-09-28T08:33:36;18.50;99.90
7331;DHT22;3706;49.198;7.064;2022-09-28T08:36:04;19.50;99.90
7331;DHT22;3706;49.198;7.064;2022-09-28T08:38:31;20.10;97.70
7331;DHT22;3706;49.198;7.064;2022-09-28T08:41:09;20.20;95.10
7331;DHT22;3706;49.198;7.064;2022-09-28T08:44:04;20.30;94.30
7331;DHT22;3706;49.198;7.064;2022-09-28T08:46:38;20.60;93.50
7331;DHT22;3706;49.198;7.064;2022-09-28T08:49:09;21.00;91.30
7331;DHT22;3706;49.198;7.064;2022-09-28T08:51:41;21.30;90.50
7331;DHT22;3706;49.198;7.064;2022-09-28T08:54:22;21.20;90.10
7331;DHT22;3706;49.198;7.064;2022-09-28T08:56:56;21.50;88.60
7331;DHT22;3706;49.198;7.064;2022-09-28T08:59:40;21.30;87.30
7331;DHT22;3706;49.198;7.064;2022-09-28T09:02:14;21.40;87.70
7331;DHT22;3706;49.198;7.064;2022-09-28T09:04:41;21.90;86.30
7331;DHT22;3706;49.198;7.064;2022-09-28T09:07:20;22.60;83.30
7331;DHT22;3706;49.198;7.064;2022-09-28T09:09:59;22.40;82.00
7331;DHT22;3706;49.198;7.064;2022-09-28T09:12:34;21.50;82.70
7331;DHT22;3706;49.198;7.064;2022-09-28T09:15:37;20.40;84.50
7331;DHT22;3706;49.198;7.064;2022-09-28T09:18:18;19.40;88.30
7331;DHT22;3706;49.198;7.064;2022-09-28T09:20:51;19.40;87.60
7331;DHT22;3706;49.198;7.064;2022-09-28T09:23:26;19.80;87.40
7331;DHT22;3706;49.198;7.064;2022-09-28T09:26:04;19.70;87.80
7331;DHT22;3706;49.198;7.064;2022-09-28T09:29:05;19.40;89.10
7331;DHT22;3706;49.198;7.064;2022-09-28T09:31:53;19.40;90.30
7331;DHT22;3706;49.198;7.064;2022-09-28T09:34:36;19.70;86.40
7331;DHT22;3706;49.198;7.064;2022-09-28T09:37:18;19.60;83.50
7331;DHT22;3706;49.198;7.064;2022-09-28T09:40:01;18.80;84.40
7331;DHT22;3706;49.198;7.064;2022-09-28T09:42:43;17.70;87.00
7331;DHT22;3706;49.198;7.064;2022-09-28T09:45:27;16.80;90.40
7331;DHT22;3706;49.198;7.064;2022-09-28T09:47:58;16.20;91.70
7331;DHT22;3706;49.198;7.064;2022-09-28T09:50:30;15.80;92.60
7331;DHT22;3706;49.198;7.064;2022-09-28T09:53:02;15.80;93.50
7331;DHT22;3706;49.198;7.064;2022-09-28T09:55:33;15.90;93.80
7331;DHT22;3706;49.198;7.064;2022-09-28T09:58:05;15.70;93.80
7331;DHT22;3706;49.198;7.064;2022-09-28T10:00:38;15.70;94.40
7331;DHT22;3706;49.198;7.064;2022-09-28T10:03:09;15.80;94.50
7331;DHT22;3706;49.198;7.064;2022-09-28T10:05:40;15.90;94.30
7331;DHT22;3706;49.198;7.064;2022-09-28T10:08:13;16.00;94.50
7331;DHT22;3706;49.198;7.064;2022-09-28T10:10:47;16.00;95.00
7331;DHT22;3706;49.198;7.064;2022-09-28T10:13:14;16.30;95.00
7331;DHT22;3706;49.198;7.064;2022-09-28T10:15:43;16.60;94.40
7331;DHT22;3706;49.198;7.064;2022-09-28T10:18:13;16.80;94.70
7331;DHT22;3706;49.198;7.064;2022-09-28T10:20:42;17.30;92.70
7331;DHT22;3706;49.198;7.064;2022-09-28T10:23:16;17.60;92.10
7331;DHT22;3706;49.198;7.064;2022-09-28T10:25:45;18.00;91.80
7331;DHT22;3706;49.198;7.064;2022-09-28T10:28:18;18.50;91.00
7331;DHT22;3706;49.198;7.064;2022-09-28T10:30:48;18.60;90.10
7331;DHT22;3706;49.198;7.064;2022-09-28T10:33:29;18.60;89.10
7331;DHT22;3706;49.198;7.064;2022-09-28T10:35:58;18.40;90.00
7331;DHT22;3706;49.198;7.064;2022-09-28T10:38:25;18.20;90.00
7331;DHT22;3706;49.198;7.064;2022-09-28T10:40:53;18.40;90.10
7331;DHT22;3706;49.198;7.064;2022-09-28T10:43:23;18.90;88.90
7331;DHT22;3706;49.198;7.064;2022-09-28T10:46:02;19.10;87.50
7331;DHT22;3706;49.198;7.064;2022-09-28T10:48:49;18.90;87.80
7331;DHT22;3706;49.198;7.064;2022-09-28T10:51:17;18.50;88.90
7331;DHT22;3706;49.198;7.064;2022-09-28T10:53:58;18.00;89.60
7331;DHT22;3706;49.198;7.064;2022-09-28T10:56:27;17.50;89.00
7331;DHT22;3706;49.198;7.064;2022-09-28T10:58:54;17.20;90.10
7331;DHT22;3706;49.198;7.064;2022-09-28T11:01:25;17.30;90.00
7331;DHT22;3706;49.198;7.064;2022-09-28T11:03:57;17.30;90.50
7331;DHT22;3706;49.198;7.064;2022-09-28T11:06:26;17.20;90.30
7331;DHT22;3706;49.198;7.064;2022-09-28T11:08:56;17.10;90.70
7331;DHT22;3706;49.198;7.064;2022-09-28T11:11:23;17.00;90.10
7331;DHT22;3706;49.198;7.064;2022-09-28T11:13:53;17.20;90.00
7331;DHT22;3706;49.198;7.064;2022-09-28T11:16:25;18.00;88.90
7331;DHT22;3706;49.198;7.064;2022-09-28T11:18:53;19.00;85.00
7331;DHT22;3706;49.198;7.064;2022-09-28T11:21:26;20.10;81.10
7331;DHT22;3706;49.198;7.064;2022-09-28T11:23:58;20.50;79.40
7331;DHT22;3706;49.198;7.064;2022-09-28T11:26:37;20.10;78.10
7331;DHT22;3706;49.198;7.064;2022-09-28T11:29:05;19.30;79.60
7331;DHT22;3706;49.198;7.064;2022-09-28T11:31:45;18.70;81.50
7331;DHT22;3706;49.198;7.064;2022-09-28T11:34:15;18.00;83.20
7331;DHT22;3706;49.198;7.064;2022-09-28T11:36:59;17.40;86.30
7331;DHT22;3706;49.198;7.064;2022-09-28T11:39:36;16.80;89.10
7331;DHT22;3706;49.198;7.064;2022-09-28T11:42:16;16.30;90.30
7331;DHT22;3706;49.198;7.064;2022-09-28T11:44:47;16.00;90.80
7331;DHT22;3706;49.198;7.064;2022-09-28T11:47:30;15.80;91.40
7331;DHT22;3706;49.198;7.064;2022-09-28T11:50:03;15.70;91.30
7331;DHT22;3706;49.198;7.064;2022-09-28T11:52:38;15.60;91.80
7331;DHT22;3706;49.198;7.064;2022-09-28T11:55:11;15.50;92.10
7331;DHT22;3706;49.198;7.064;2022-09-28T11:57:42;15.40;92.10
7331;DHT22;3706;49.198;7.064;2022-09-28T12:00:14;15.40;92.20
7331;DHT22;3706;49.198;7.064;2022-09-28T12:02:45;15.40;92.70
7331;DHT22;3706;49.198;7.064;2022-09-28T12:05:20;15.40;93.20
7331;DHT22;3706;49.198;7.064;2022-09-28T12:07:51;15.40;93.40
7331;DHT22;3706;49.198;7.064;2022-09-28T12:10:37;15.40;92.80
7331;DHT22;3706;49.198;7.064;2022-09-28T12:13:10;15.50;92.40
7331;DHT22;3706;49.198;7.064;2022-09-28T12:15:44;16.40;91.90
7331;DHT22;3706;49.198;7.064;2022-09-28T12:18:16;17.70;90.20
7331;DHT22;3706;49.198;7.064;2022-09-28T12:20:48;19.00;87.40
7331;DHT22;3706;49.198;7.064;2022-09-28T12:23:19;20.10;82.00
7331;DHT22;3706;49.198;7.064;2022-09-28T12:25:56;20.80;80.10
7331;DHT22;3706;49.198;7.064;2022-09-28T12:28:30;21.20;78.10
7331;DHT22;3706;49.198;7.064;2022-09-28T12:31:09;21.80;77.00
7331;DHT22;3706;49.198;7.064;2022-09-28T12:33:46;22.40;71.30
7331;DHT22;3706;49.198;7.064;2022-09-28T12:36:25;22.70;71.90
7331;DHT22;3706;49.198;7.064;2022-09-28T12:39:07;22.70;70.30
7331;DHT22;3706;49.198;7.064;2022-09-28T12:41:44;22.20;71.30
7331;DHT22;3706;49.198;7.064;2022-09-28T12:47:47;20.20;72.90
7331;DHT22;3706;49.198;7.064;2022-09-28T12:50:26;19.00;74.40
7331;DHT22;3706;49.198;7.064;2022-09-28T12:53:06;18.00;77.90
7331;DHT22;3706;49.198;7.064;2022-09-28T12:55:49;17.30;79.60
7331;DHT22;3706;49.198;7.064;2022-09-28T12:58:33;16.70;84.20
7331;DHT22;3706;49.198;7.064;2022-09-28T13:01:15;16.30;89.00
7331;DHT22;3706;49.198;7.064;2022-09-28T13:04:02;16.10;90.20
7331;DHT22;3706;49.198;7.064;2022-09-28T13:06:46;16.30;91.90
7331;DHT22;3706;49.198;7.064;2022-09-28T13:09:19;16.40;91.30
7331;DHT22;3706;49.198;7.064;2022-09-28T13:11:59;16.40;90.60
7331;DHT22;3706;49.198;7.064;2022-09-28T13:17:42;16.20;91.00
7331;DHT22;3706;49.198;7.064;2022-09-28T13:20:20;16.50;90.90
7331;DHT22;3706;49.198;7.064;2022-09-28T13:22:56;17.00;90.70
7331;DHT22;3706;49.198;7.064;2022-09-28T13:25:29;17.30;90.40
7331;DHT22;3706;49.198;7.064;2022-09-28T13:28:00;17.50;88.80
7331;DHT22;3706;49.198;7.064;2022-09-28T13:30:27;17.80;88.30
7331;DHT22;3706;49.198;7.064;2022-09-28T13:32:55;18.30;86.40
7331;DHT22;3706;49.198;7.064;2022-09-28T13:35:23;18.90;84.40
7331;DHT22;3706;49.198;7.064;2022-09-28T13:41:14;20.00;79.20
7331;DHT22;3706;49.198;7.064;2022-09-28T13:43:53;20.40;78.80
7331;DHT22;3706;49.198;7.064;2022-09-28T13:46:28;20.60;77.60
7331;DHT22;3706;49.198;7.064;2022-09-28T13:49:04;20.10;75.50
7331;DHT22;3706;49.198;7.064;2022-09-28T13:51:46;19.40;77.30
7331;DHT22;3706;49.198;7.064;2022-09-28T13:54:37;18.60;78.60
7331;DHT22;3706;49.198;7.064;2022-09-28T13:57:16;18.10;79.70
7331;DHT22;3706;49.198;7.064;2022-09-28T13:59:52;17.60;81.10
7331;DHT22;3706;49.198;7.064;2022-09-28T14:02:30;17.50;81.50
7331;DHT22;3706;49.198;7.064;2022-09-28T14:04:59;17.40;82.10
7331;DHT22;3706;49.198;7.064;2022-09-28T14:07:56;17.50;84.30
7331;DHT22;3706;49.198;7.064;2022-09-28T14:10:54;17.50;85.50
7331;DHT22;3706;49.198;7.064;2022-09-28T14:14:02;17.90;85.80
7331;DHT22;3706;49.198;7.064;2022-09-28T14:16:32;18.10;84.20
7331;DHT22;3706;49.198;7.064;2022-09-28T14:19:02;17.80;81.20
7331;DHT22;3706;49.198;7.064;2022-09-28T14:21:50;17.70;83.00
7331;DHT22;3706;49.198;7.064;2022-09-28T14:24:33;17.40;83.80
7331;DHT22;3706;49.198;7.064;2022-09-28T14:27:22;17.10;84.40
7331;DHT22;3706;49.198;7.064;2022-09-28T14:30:12;16.80;86.10
7331;DHT22;3706;49.198;7.064;2022-09-28T14:32:47;16.50;85.70
7331;DHT22;3706;49.198;7.064;2022-09-28T14:35:19;16.20;86.10
7331;DHT22;3706;49.198;7.064;2022-09-28T14:37:48;16.10;86.90
7331;DHT22;3706;49.198;7.064;2022-09-28T14:40:56;16.10;87.10
7331;DHT22;3706;49.198;7.064;2022-09-28T14:43:57;16.00;87.70
7331;DHT22;3706;49.198;7.064;2022-09-28T14:46:34;16.00;87.40
7331;DHT22;3706;49.198;7.064;2022-09-28T14:49:04;15.90;88.00
7331;DHT22;3706;49.198;7.064;2022-09-28T14:51:58;16.00;87.80
7331;DHT22;3706;49.198;7.064;2022-09-28T14:54:41;15.80;87.00
7331;DHT22;3706;49.198;7.064;2022-09-28T14:57:16;15.70;87.40
7331;DHT22;3706;49.198;7.064;2022-09-28T14:59:44;15.50;89.00
7331;DHT22;3706;49.198;7.064;2022-09-28T15:02:21;15.30;89.50
7331;DHT22;3706;49.198;7.064;2022-09-28T15:04:52;15.20;88.80
7331;DHT22;3706;49.198;7.064;2022-09-28T15:07:22;15.10;88.90
7331;DHT22;3706;49.198;7.064;2022-09-28T15:09:50;15.10;88.20
7331;DHT22;3706;49.198;7.064;2022-09-28T15:12:20;15.10;87.40
7331;DHT22;3706;49.198;7.064;2022-09-28T15:14:51;15.00;87.40
7331;DHT22;3706;49.198;7.064;2022-09-28T15:17:23;14.80;87.30
7331;DHT22;3706;49.198;7.064;2022-09-28T15:20:00;14.70;87.70
7331;DHT22;3706;49.198;7.064;2022-09-28T15:22:30;14.50;88.40
7331;DHT22;3706;49.198;7.064;2022-09-28T15:25:00;14.40;88.20
7331;DHT22;3706;49.198;7.064;2022-09-28T15:27:34;14.30;87.80
7331;DHT22;3706;49.198;7.064;2022-09-28T15:30:19;14.10;88.20
7331;DHT22;3706;49.198;7.064;2022-09-28T15:32:49;14.10;88.50
7331;DHT22;3706;49.198;7.064;2022-09-28T15:35:19;14.00;88.50
7331;DHT22;3706;49.198;7.064;2022-09-28T15:37:46;13.90;90.10
7331;DHT22;3706;49.198;7.064;2022-09-28T15:40:17;13.80;91.00
7331;DHT22;3706;49.198;7.064;2022-09-28T15:42:45;13.80;90.80
7331;DHT22;3706;49.198;7.064;2022-09-28T15:45:23;13.70;91.20
7331;DHT22;3706;49.198;7.064;2022-09-28T15:50:38;13.80;91.10
7331;DHT22;3706;49.198;7.064;2022-09-28T15:53:16;13.90;91.50
7331;DHT22;3706;49.198;7.064;2022-09-28T15:55:43;14.00;91.90
7331;DHT22;3706;49.198;7.064;2022-09-28T15:58:15;14.10;92.20
7331;DHT22;3706;49.198;7.064;2022-09-28T16:00:43;14.10;91.80
7331;DHT22;3706;49.198;7.064;2022-09-28T16:03:23;14.10;92.10
7331;DHT22;3706;49.198;7.064;2022-09-28T16:06:05;14.20;92.00
7331;DHT22;3706;49.198;7.064;2022-09-28T16:08:40;14.10;91.80
7331;DHT22;3706;49.198;7.064;2022-09-28T16:11:14;14.00;92.10
7331;DHT22;3706;49.198;7.064;2022-09-28T16:13:54;13.90;92.90
7331;DHT22;3706;49.198;7.064;2022-09-28T16:16:25;13.80;93.40
7331;DHT22;3706;49.198;7.064;2022-09-28T16:18:56;13.70;93.60
7331;DHT22;3706;49.198;7.064;2022-09-28T16:21:38;13.50;94.00
7331;DHT22;3706;49.198;7.064;2022-09-28T16:24:05;13.30;94.40
7331;DHT22;3706;49.198;7.064;2022-09-28T16:26:36;13.10;95.10
7331;DHT22;3706;49.198;7.064;2022-09-28T16:29:14;13.00;95.80
7331;DHT22;3706;49.198;7.064;2022-09-28T16:31:49;12.70;96.50
7331;DHT22;3706;49.198;7.064;2022-09-28T16:34:22;12.50;97.20
7331;DHT22;3706;49.198;7.064;2022-09-28T16:36:50;12.30;97.90
7331;DHT22;3706;49.198;7.064;2022-09-28T16:39:17;12.10;98.60
7331;DHT22;3706;49.198;7.064;2022-09-28T16:41:47;11.90;99.40
7331;DHT22;3706;49.198;7.064;2022-09-28T16:44:20;11.80;99.90
7331;DHT22;3706;49.198;7.064;2022-09-28T16:46:49;11.60;99.90
7331;DHT22;3706;49.198;7.064;2022-09-28T16:49:20;11.60;99.90
7331;DHT22;3706;49.198;7.064;2022-09-28T16:51:48;11.50;99.90
7331;DHT22;3706;49.198;7.064;2022-09-28T16:54:17;11.40;99.90
7331;DHT22;3706;49.198;7.064;2022-09-28T16:57:03;11.30;99.90